createdAt,value
2022-08-18T00:00:12.964Z,48.10
2022-08-18T00:03:27.180Z,48.30
2022-08-18T00:06:16.941Z,48.50
2022-08-18T00:09:08.844Z,48.60
2022-08-18T00:11:57.562Z,48.90
2022-08-18T00:14:46.648Z,49.10
2022-08-18T00:17:35.544Z,49.20
2022-08-18T00:20:25.067Z,49.30
2022-08-18T00:23:13.508Z,50.00
2022-08-18T00:26:00.697Z,49.30
2022-08-18T00:28:49.240Z,49.40
2022-08-18T00:31:37.155Z,49.60
2022-08-18T00:34:24.403Z,49.50
2022-08-18T00:37:12.021Z,49.50
2022-08-18T00:39:58.959Z,49.60
2022-08-18T00:42:50.847Z,49.50
2022-08-18T00:45:42.749Z,49.50
2022-08-18T00:48:30.322Z,49.50
2022-08-18T00:51:22.161Z,49.40
2022-08-18T00:54:15.394Z,49.50
2022-08-18T00:57:07.637Z,49.60
2022-08-18T01:00:07.906Z,49.60
2022-08-18T01:03:02.278Z,49.50
2022-08-18T01:05:54.886Z,49.50
2022-08-18T01:08:42.182Z,49.40
2022-08-18T01:11:30.339Z,49.30
2022-08-18T01:14:18.356Z,49.30
2022-08-18T01:17:23.263Z,50.00
2022-08-18T01:20:34.520Z,49.30
2022-08-18T01:23:25.046Z,49.30
2022-08-18T01:26:13.478Z,49.20
2022-08-18T01:29:11.899Z,49.20
2022-08-18T01:32:06.582Z,49.30
2022-08-18T01:34:54.674Z,49.10
2022-08-18T01:37:42.629Z,49.10
2022-08-18T01:41:25.813Z,49.10
2022-08-18T01:43:39.854Z,49.20
2022-08-18T01:46:29.025Z,49.10
2022-08-18T01:49:18.286Z,49.10
2022-08-18T01:52:08.177Z,49.10
2022-08-18T01:54:57.864Z,49.10
2022-08-18T01:57:46.670Z,49.10
2022-08-18T02:00:36.183Z,49.10
2022-08-18T02:03:27.313Z,49.10
2022-08-18T02:06:18.566Z,49.10
2022-08-18T02:09:23.718Z,49.10
2022-08-18T02:12:12.122Z,48.80
2022-08-18T02:15:00.696Z,48.80
2022-08-18T02:17:48.294Z,48.90
2022-08-18T02:20:35.700Z,48.90
2022-08-18T02:23:23.416Z,48.90
2022-08-18T02:26:13.951Z,48.90
2022-08-18T02:29:01.422Z,49.00
2022-08-18T02:31:49.897Z,48.90
2022-08-18T02:34:37.778Z,48.90
2022-08-18T02:37:25.341Z,49.70
2022-08-18T02:40:15.494Z,49.00
2022-08-18T02:43:09.329Z,49.00
2022-08-18T02:45:57.101Z,49.30
2022-08-18T02:48:45.941Z,49.10
2022-08-18T02:51:33.448Z,49.20
2022-08-18T02:54:23.210Z,49.00
2022-08-18T02:57:12.600Z,49.00
2022-08-18T03:00:01.434Z,49.00
2022-08-18T03:02:49.532Z,49.10
2022-08-18T03:05:38.068Z,49.20
2022-08-18T03:08:25.139Z,49.30
2022-08-18T03:11:12.695Z,49.20
2022-08-18T03:14:00.373Z,49.40
2022-08-18T03:16:54.707Z,49.40
2022-08-18T03:19:43.949Z,49.50
2022-08-18T03:22:35.756Z,49.50
2022-08-18T03:25:23.497Z,49.60
2022-08-18T03:28:10.929Z,49.70
2022-08-18T03:30:58.022Z,49.90
2022-08-18T03:33:46.515Z,49.90
2022-08-18T03:36:34.925Z,50.00
2022-08-18T03:39:25.065Z,50.00
2022-08-18T03:42:12.469Z,50.10
2022-08-18T03:44:59.998Z,50.10
2022-08-18T03:47:52.634Z,50.20
2022-08-18T03:50:39.845Z,50.20
2022-08-18T03:53:27.319Z,50.20
2022-08-18T03:56:19.197Z,50.30
2022-08-18T03:59:12.087Z,50.40
2022-08-18T04:01:59.404Z,50.40
2022-08-18T04:04:46.815Z,50.20
2022-08-18T04:07:38.384Z,50.40
2022-08-18T04:10:26.327Z,50.20
2022-08-18T04:13:15.190Z,50.30
2022-08-18T04:16:02.499Z,50.20
2022-08-18T04:18:49.757Z,50.20
2022-08-18T04:21:40.815Z,50.30
2022-08-18T04:24:31.854Z,50.30
2022-08-18T04:27:21.733Z,50.30
2022-08-18T04:30:12.520Z,50.60
2022-08-18T04:32:59.770Z,51.00
2022-08-18T04:35:47.339Z,50.90
2022-08-18T04:38:34.561Z,51.10
2022-08-18T04:41:23.389Z,51.20
2022-08-18T04:44:12.561Z,51.40
2022-08-18T04:47:02.596Z,51.50
2022-08-18T04:49:50.848Z,51.80
2022-08-18T04:53:00.783Z,51.60
2022-08-18T04:55:49.833Z,51.80
2022-08-18T04:58:37.958Z,51.60
2022-08-18T05:01:29.815Z,51.50
2022-08-18T05:04:19.401Z,51.70
2022-08-18T05:07:07.988Z,51.80
2022-08-18T05:09:55.195Z,51.70
2022-08-18T05:12:42.752Z,51.80
2022-08-18T05:15:42.176Z,51.90
2022-08-18T05:18:40.552Z,52.10
2022-08-18T05:21:33.215Z,52.20
2022-08-18T05:24:23.783Z,52.40
2022-08-18T05:27:12.754Z,52.30
2022-08-18T05:30:00.185Z,52.30
2022-08-18T05:32:49.996Z,52.20
2022-08-18T05:35:43.137Z,52.30
2022-08-18T05:38:48.248Z,52.50
2022-08-18T05:41:39.253Z,52.90
2022-08-18T05:44:34.254Z,52.70
2022-08-18T05:47:27.047Z,52.90
2022-08-18T05:50:18.788Z,52.90
2022-08-18T05:53:14.065Z,53.10
2022-08-18T05:56:23.658Z,53.30
2022-08-18T05:59:13.361Z,53.30
2022-08-18T06:02:09.157Z,53.20
2022-08-18T06:05:01.907Z,53.40
2022-08-18T06:07:56.329Z,53.40
2022-08-18T06:10:50.247Z,53.50
2022-08-18T06:13:42.351Z,53.50
2022-08-18T06:16:50.729Z,53.60
2022-08-18T06:19:50.614Z,53.80
2022-08-18T06:22:52.770Z,53.80
2022-08-18T06:26:01.590Z,53.70
2022-08-18T06:29:16.324Z,53.80
2022-08-18T06:32:24.643Z,53.80
2022-08-18T06:35:20.736Z,53.80
2022-08-18T06:38:45.813Z,53.90
2022-08-18T06:41:43.149Z,53.90
2022-08-18T06:44:41.888Z,53.90
2022-08-18T06:47:41.617Z,53.90
2022-08-18T06:50:36.070Z,54.10
2022-08-18T06:53:54.433Z,54.20
2022-08-18T06:56:51.447Z,54.10
2022-08-18T06:59:40.215Z,54.10
2022-08-18T07:02:43.646Z,54.00
2022-08-18T07:05:34.272Z,54.10
2022-08-18T07:08:35.364Z,54.80
2022-08-18T07:11:28.396Z,54.50
2022-08-18T07:14:22.144Z,54.30
2022-08-18T07:17:14.703Z,54.30
2022-08-18T07:20:09.677Z,54.50
2022-08-18T07:23:00.281Z,54.50
2022-08-18T07:25:50.191Z,54.50
2022-08-18T07:28:41.836Z,54.50
2022-08-18T07:31:43.450Z,54.60
2022-08-18T07:34:36.621Z,54.80
2022-08-18T07:37:29.550Z,54.80
2022-08-18T07:40:26.091Z,54.70
2022-08-18T07:43:21.697Z,54.80
2022-08-18T07:46:20.748Z,54.70
2022-08-18T07:49:08.078Z,54.70
2022-08-18T07:52:05.048Z,54.50
2022-08-18T07:55:10.039Z,54.70
2022-08-18T07:58:10.359Z,54.70
2022-08-18T08:01:02.729Z,54.60
2022-08-18T08:04:00.775Z,54.70
2022-08-18T08:07:22.975Z,54.90
2022-08-18T08:10:35.408Z,54.90
2022-08-18T08:13:54.108Z,55.10
2022-08-18T08:16:48.824Z,54.90
2022-08-18T08:20:10.553Z,55.00
2022-08-18T08:23:17.372Z,54.70
2022-08-18T08:26:25.179Z,54.80
2022-08-18T08:29:23.077Z,55.00
2022-08-18T08:32:17.435Z,55.10
2022-08-18T08:35:15.604Z,55.20
2022-08-18T08:38:42.772Z,55.40
2022-08-18T08:41:39.672Z,55.50
2022-08-18T08:44:44.984Z,55.60
2022-08-18T08:48:06.651Z,55.60
2022-08-18T08:51:02.907Z,55.70
2022-08-18T08:53:57.503Z,55.70
2022-08-18T08:56:48.609Z,55.70
2022-08-18T08:59:37.218Z,55.60
2022-08-18T09:02:48.935Z,55.60
2022-08-18T09:05:41.416Z,55.70
2022-08-18T09:09:18.636Z,55.60
2022-08-18T09:12:24.887Z,55.60
2022-08-18T09:15:52.233Z,55.40
2022-08-18T09:18:58.944Z,55.60
2022-08-18T09:21:54.762Z,55.60
2022-08-18T09:24:48.977Z,55.60
2022-08-18T09:28:09.352Z,55.80
2022-08-18T09:34:45.331Z,55.90
2022-08-18T09:38:08.511Z,56.10
2022-08-18T09:41:18.618Z,56.10
2022-08-18T09:44:12.072Z,55.90
2022-08-18T09:47:10.232Z,55.80
2022-08-18T09:49:58.487Z,55.90
2022-08-18T09:52:50.505Z,55.90
2022-08-18T09:56:04.792Z,55.90
2022-08-18T09:59:02.139Z,56.30
2022-08-18T10:01:52.545Z,56.30
2022-08-18T10:04:49.148Z,56.20
2022-08-18T10:07:43.997Z,56.20
2022-08-18T10:10:59.476Z,56.40
2022-08-18T10:14:04.332Z,56.60
2022-08-18T10:20:28.594Z,56.90
2022-08-18T10:24:03.127Z,56.90
2022-08-18T10:27:04.048Z,56.70
2022-08-18T10:29:58.493Z,56.80
2022-08-18T10:32:52.107Z,56.80
2022-08-18T10:36:03.215Z,56.50
2022-08-18T10:38:53.515Z,56.70
2022-08-18T10:41:58.069Z,57.00
2022-08-18T10:44:48.446Z,57.90
2022-08-18T10:47:37.513Z,57.00
2022-08-18T10:50:28.456Z,57.20
2022-08-18T10:53:44.390Z,57.20
2022-08-18T10:56:41.934Z,57.30
2022-08-18T10:59:48.968Z,57.40
2022-08-18T11:03:21.060Z,57.60
2022-08-18T11:06:21.231Z,57.70
2022-08-18T11:09:10.364Z,57.60
2022-08-18T11:12:02.275Z,57.90
2022-08-18T11:18:43.266Z,58.40
2022-08-18T11:21:42.601Z,58.50
2022-08-18T11:24:35.353Z,58.40
2022-08-18T11:27:28.953Z,58.50
2022-08-18T11:30:17.765Z,58.50
2022-08-18T11:33:05.943Z,58.40
2022-08-18T11:35:59.452Z,58.40
2022-08-18T11:38:56.627Z,58.80
2022-08-18T11:41:50.257Z,58.90
2022-08-18T11:44:41.009Z,58.40
2022-08-18T11:47:30.174Z,58.20
2022-08-18T11:50:29.700Z,57.90
2022-08-18T11:53:26.570Z,57.90
2022-08-18T11:56:30.940Z,57.80
2022-08-18T11:59:54.303Z,57.80
2022-08-18T12:02:43.375Z,57.90
2022-08-18T12:05:33.765Z,57.50
2022-08-18T12:08:57.011Z,57.50
2022-08-18T12:11:54.794Z,57.70
2022-08-18T12:15:03.601Z,57.60
2022-08-18T12:17:55.152Z,57.20
2022-08-18T12:20:42.257Z,57.20
2022-08-18T12:23:44.442Z,57.00
2022-08-18T12:26:38.523Z,57.00
2022-08-18T12:29:36.753Z,56.80
2022-08-18T12:35:42.241Z,56.70
2022-08-18T12:38:29.570Z,56.50
2022-08-18T12:41:22.887Z,56.40
2022-08-18T12:44:13.134Z,56.40
2022-08-18T12:47:03.405Z,56.10
2022-08-18T12:49:51.572Z,56.20
2022-08-18T12:52:39.677Z,56.20
2022-08-18T12:55:43.506Z,57.00
2022-08-18T12:58:32.842Z,56.10
2022-08-18T13:01:26.577Z,56.30
2022-08-18T13:04:15.618Z,56.30
2022-08-18T13:07:07.989Z,56.80
2022-08-18T13:09:56.228Z,56.20
2022-08-18T13:12:43.332Z,55.90
2022-08-18T13:15:30.838Z,56.10
2022-08-18T13:18:19.947Z,56.10
2022-08-18T13:21:16.724Z,55.80
2022-08-18T13:24:05.242Z,55.90
2022-08-18T13:26:56.961Z,55.90
2022-08-18T13:29:44.336Z,55.80
2022-08-18T13:32:38.351Z,55.90
2022-08-18T13:35:44.163Z,55.80
2022-08-18T13:38:31.998Z,55.80
2022-08-18T13:41:19.186Z,55.70
2022-08-18T13:44:11.601Z,55.50
2022-08-18T13:46:59.529Z,55.40
2022-08-18T13:49:58.206Z,55.30
2022-08-18T13:52:48.203Z,55.20
2022-08-18T13:55:36.953Z,55.00
2022-08-18T13:58:24.220Z,55.20
2022-08-18T14:04:22.531Z,54.80
2022-08-18T14:07:12.556Z,54.70
2022-08-18T14:10:10.683Z,54.70
2022-08-18T14:13:20.194Z,54.40
2022-08-18T14:16:10.408Z,54.50
2022-08-18T14:19:15.028Z,54.60
2022-08-18T14:22:23.271Z,54.70
2022-08-18T14:25:31.860Z,54.70
2022-08-18T14:28:24.776Z,54.50
2022-08-18T14:31:12.999Z,54.50
2022-08-18T14:34:04.089Z,54.40
2022-08-18T14:36:51.921Z,54.20
2022-08-18T14:39:40.353Z,54.10
2022-08-18T14:42:41.156Z,54.00
2022-08-18T14:45:35.316Z,53.90
2022-08-18T14:48:24.173Z,54.00
2022-08-18T14:51:11.968Z,53.90
2022-08-18T14:53:59.023Z,54.00
2022-08-18T14:56:46.892Z,54.00
2022-08-18T14:59:37.910Z,54.10
2022-08-18T15:02:25.640Z,54.20
2022-08-18T15:05:19.548Z,53.80
2022-08-18T15:08:11.860Z,53.60
2022-08-18T15:10:59.713Z,53.50
2022-08-18T15:13:47.267Z,53.50
2022-08-18T15:16:38.717Z,53.40
2022-08-18T15:19:58.513Z,54.30
2022-08-18T15:22:56.874Z,53.60
2022-08-18T15:25:50.930Z,53.20
2022-08-18T15:28:38.991Z,53.10
2022-08-18T15:34:46.909Z,53.20
2022-08-18T15:37:39.572Z,53.00
2022-08-18T15:40:41.437Z,52.80
2022-08-18T15:43:31.657Z,52.80
2022-08-18T15:46:19.148Z,52.60
2022-08-18T15:49:11.322Z,52.60
2022-08-18T15:52:03.862Z,52.50
2022-08-18T15:54:51.266Z,52.30
2022-08-18T15:57:40.000Z,52.30
2022-08-18T16:00:32.079Z,52.30
2022-08-18T16:03:21.313Z,52.20
2022-08-18T16:06:14.358Z,52.30
2022-08-18T16:09:08.868Z,52.30
2022-08-18T16:12:00.241Z,52.30
2022-08-18T16:14:48.124Z,52.30
2022-08-18T16:17:35.534Z,52.50
2022-08-18T16:20:25.407Z,52.40
2022-08-18T16:23:13.892Z,52.10
2022-08-18T16:26:04.409Z,52.10
2022-08-18T16:28:54.047Z,52.00
2022-08-18T16:31:41.577Z,52.30
2022-08-18T16:34:30.964Z,52.80
2022-08-18T16:37:18.121Z,52.10
2022-08-18T16:40:08.545Z,52.00
2022-08-18T16:42:59.401Z,51.90
2022-08-18T16:45:48.612Z,51.70
2022-08-18T16:48:38.118Z,51.40
2022-08-18T16:51:28.159Z,51.50
2022-08-18T16:54:16.449Z,51.40
2022-08-18T16:57:03.849Z,51.50
2022-08-18T17:00:09.894Z,51.30
2022-08-18T17:03:14.370Z,51.30
2022-08-18T17:06:03.357Z,51.20
2022-08-18T17:08:50.590Z,51.30
2022-08-18T17:11:48.066Z,51.50
2022-08-18T17:14:39.512Z,51.60
2022-08-18T17:17:28.284Z,51.50
2022-08-18T17:20:18.797Z,51.50
2022-08-18T17:23:07.747Z,51.60
2022-08-18T17:25:58.598Z,51.70
2022-08-18T17:28:53.879Z,51.50
2022-08-18T17:31:47.465Z,51.40
2022-08-18T17:34:41.934Z,51.50
2022-08-18T17:37:31.440Z,51.50
2022-08-18T17:40:24.437Z,51.40
2022-08-18T17:43:18.690Z,51.40
2022-08-18T17:46:14.050Z,51.50
2022-08-18T17:49:05.322Z,51.50
2022-08-18T17:51:56.600Z,51.40
2022-08-18T17:54:49.415Z,51.40
2022-08-18T17:57:43.567Z,51.50
2022-08-18T18:00:46.237Z,51.40
2022-08-18T18:03:34.225Z,51.50
2022-08-18T18:06:33.562Z,51.50
2022-08-18T18:09:32.709Z,51.30
2022-08-18T18:12:24.673Z,51.10
2022-08-18T18:15:15.459Z,51.00
2022-08-18T18:18:26.639Z,51.10
2022-08-18T18:21:22.929Z,50.90
2022-08-18T18:24:35.835Z,51.10
2022-08-18T18:27:35.610Z,50.80
2022-08-18T18:30:27.549Z,50.80
2022-08-18T18:33:18.420Z,51.10
2022-08-18T18:36:06.779Z,50.80
2022-08-18T18:39:11.140Z,50.80
2022-08-18T18:42:19.481Z,50.30
2022-08-18T18:45:09.703Z,50.70
2022-08-18T18:48:06.399Z,50.60
2022-08-18T18:51:10.807Z,50.50
2022-08-18T18:54:07.343Z,50.90
2022-08-18T18:56:57.439Z,51.10
2022-08-18T19:00:02.410Z,51.10
2022-08-18T19:03:03.844Z,51.30
2022-08-18T19:06:16.758Z,51.20
2022-08-18T19:09:14.061Z,51.20
2022-08-18T19:12:13.708Z,51.10
2022-08-18T19:15:14.753Z,51.20
2022-08-18T19:18:06.441Z,51.60
2022-08-18T19:22:01.948Z,51.90
2022-08-18T19:24:14.824Z,52.00
2022-08-18T19:27:06.039Z,52.10
2022-08-18T19:29:58.329Z,51.90
2022-08-18T19:32:52.003Z,52.00
2022-08-18T19:35:58.798Z,52.10
2022-08-18T19:38:55.561Z,52.10
2022-08-18T19:41:51.096Z,52.10
2022-08-18T19:44:51.073Z,52.00
2022-08-18T19:48:00.534Z,51.60
2022-08-18T19:50:54.302Z,51.80
2022-08-18T19:54:14.453Z,51.90
2022-08-18T19:57:18.164Z,51.80
2022-08-18T20:00:22.886Z,51.80
2022-08-18T20:04:03.802Z,51.80
2022-08-18T20:07:20.510Z,51.70
2022-08-18T20:10:36.304Z,51.70
2022-08-18T20:13:35.281Z,51.90
2022-08-18T20:16:43.956Z,51.90
2022-08-18T20:20:13.599Z,52.00
2022-08-18T20:23:02.000Z,51.80
2022-08-18T20:25:50.079Z,51.70
2022-08-18T20:28:41.745Z,51.70
2022-08-18T20:31:52.249Z,51.60
2022-08-18T20:34:39.898Z,51.70
2022-08-18T20:37:31.851Z,52.00
2022-08-18T20:40:42.901Z,51.90
2022-08-18T20:43:33.765Z,51.80
2022-08-18T20:46:37.549Z,51.90
2022-08-18T20:49:50.415Z,52.00
2022-08-18T20:52:48.945Z,52.10
2022-08-18T20:55:46.817Z,52.20
2022-08-18T20:58:38.586Z,52.30
2022-08-18T21:01:30.626Z,52.30
2022-08-18T21:04:17.739Z,52.00
2022-08-18T21:07:13.085Z,52.00
2022-08-18T21:10:12.802Z,52.00
2022-08-18T21:13:04.214Z,52.00
2022-08-18T21:15:51.507Z,52.10
2022-08-18T21:18:41.018Z,52.10
2022-08-18T21:21:32.775Z,52.10
2022-08-18T21:24:33.810Z,52.20
2022-08-18T21:27:28.106Z,52.40
2022-08-18T21:30:21.386Z,52.20
2022-08-18T21:33:21.200Z,52.30
2022-08-18T21:36:14.622Z,52.50
2022-08-18T21:39:09.363Z,52.50
2022-08-18T21:41:59.541Z,52.50
2022-08-18T21:44:49.974Z,52.50
2022-08-18T21:47:37.215Z,52.60
2022-08-18T21:50:27.154Z,52.50
2022-08-18T21:53:30.330Z,52.50
2022-08-18T21:56:24.257Z,52.70
2022-08-18T21:59:14.565Z,52.60
2022-08-18T22:02:03.930Z,52.50
2022-08-18T22:04:51.267Z,52.50
2022-08-18T22:07:47.287Z,52.50
2022-08-18T22:10:52.529Z,52.50
2022-08-18T22:13:59.728Z,52.60
2022-08-18T22:17:01.893Z,53.30
2022-08-18T22:19:50.631Z,52.70
2022-08-18T22:22:55.118Z,52.60
2022-08-18T22:25:43.385Z,52.70
2022-08-18T22:28:30.699Z,52.80
2022-08-18T22:31:21.299Z,52.80
2022-08-18T22:34:11.718Z,52.90
2022-08-18T22:37:04.259Z,52.80
2022-08-18T22:39:55.731Z,52.90
2022-08-18T22:42:43.328Z,52.80
2022-08-18T22:45:30.679Z,52.80
2022-08-18T22:48:18.099Z,52.80
2022-08-18T22:51:06.513Z,52.70
2022-08-18T22:53:56.815Z,52.70
2022-08-18T22:56:55.211Z,52.70
2022-08-18T22:59:46.790Z,52.50
2022-08-18T23:02:34.407Z,52.50
2022-08-18T23:05:21.786Z,52.50
2022-08-18T23:08:09.052Z,52.50
2022-08-18T23:10:57.744Z,52.60
2022-08-18T23:13:45.249Z,52.50
2022-08-18T23:16:32.606Z,52.60
2022-08-18T23:19:22.241Z,52.50
2022-08-18T23:22:11.073Z,52.50
2022-08-18T23:24:58.626Z,53.10
2022-08-18T23:27:47.361Z,52.40
2022-08-18T23:30:34.968Z,52.40
2022-08-18T23:33:22.065Z,52.40
2022-08-18T23:36:10.622Z,52.50
2022-08-18T23:38:58.730Z,52.70
2022-08-18T23:41:45.955Z,52.80
2022-08-18T23:44:35.455Z,53.10
2022-08-18T23:47:22.676Z,53.30
2022-08-18T23:50:11.893Z,53.30
2022-08-18T23:53:01.585Z,53.30
2022-08-18T23:55:48.709Z,53.20
2022-08-18T23:58:36.165Z,53.30
